sensor_id;sensor_type;location;lat;lon;timestamp;P1;durP1;ratioP1;P2;durP2;ratioP2
4519;SDS011;2272;49.226;8.108;2024-01-27T00:17:43;1.80;;;1.63;;
4519;SDS011;2272;49.226;8.108;2024-01-27T00:24:12;1.70;;;1.57;;
4519;SDS011;2272;49.226;8.108;2024-01-27T00:30:03;4.30;;;1.83;;
4519;SDS011;2272;49.226;8.108;2024-01-27T01:19:49;3.40;;;2.30;;
4519;SDS011;2272;49.226;8.108;2024-01-27T01:22:23;5.50;;;1.60;;
4519;SDS011;2272;49.226;8.108;2024-01-27T01:25:17;1.83;;;1.70;;
4519;SDS011;2272;49.226;8.108;2024-01-27T01:28:23;12.67;;;2.13;;
4519;SDS011;2272;49.226;8.108;2024-01-27T01:44:09;5.00;;;2.27;;
4519;SDS011;2272;49.226;8.108;2024-01-27T01:50:23;2.90;;;2.00;;
4519;SDS011;2272;49.226;8.108;2024-01-27T03:14:48;5.03;;;2.30;;
4519;SDS011;2272;49.226;8.108;2024-01-27T03:17:16;4.73;;;2.30;;
4519;SDS011;2272;49.226;8.108;2024-01-27T03:19:42;9.43;;;2.40;;
4519;SDS011;2272;49.226;8.108;2024-01-27T03:22:09;5.60;;;2.10;;
4519;SDS011;2272;49.226;8.108;2024-01-27T03:24:36;22.13;;;2.07;;
4519;SDS011;2272;49.226;8.108;2024-01-27T03:27:03;8.00;;;2.20;;
4519;SDS011;2272;49.226;8.108;2024-01-27T03:29:30;6.87;;;2.30;;
4519;SDS011;2272;49.226;8.108;2024-01-27T03:31:58;14.40;;;2.20;;
4519;SDS011;2272;49.226;8.108;2024-01-27T03:34:24;11.30;;;2.50;;
4519;SDS011;2272;49.226;8.108;2024-01-27T03:36:52;15.03;;;2.83;;
4519;SDS011;2272;49.226;8.108;2024-01-27T03:39:19;12.10;;;3.63;;
4519;SDS011;2272;49.226;8.108;2024-01-27T03:41:45;24.23;;;2.33;;
4519;SDS011;2272;49.226;8.108;2024-01-27T03:44:12;6.20;;;2.53;;
4519;SDS011;2272;49.226;8.108;2024-01-27T03:46:39;12.90;;;2.20;;
4519;SDS011;2272;49.226;8.108;2024-01-27T03:49:07;14.37;;;2.70;;
4519;SDS011;2272;49.226;8.108;2024-01-27T03:51:33;9.90;;;2.33;;
4519;SDS011;2272;49.226;8.108;2024-01-27T03:54:00;5.47;;;2.10;;
4519;SDS011;2272;49.226;8.108;2024-01-27T03:56:27;11.50;;;2.53;;
4519;SDS011;2272;49.226;8.108;2024-01-27T03:58:53;8.30;;;2.33;;
4519;SDS011;2272;49.226;8.108;2024-01-27T04:01:20;2.77;;;1.80;;
4519;SDS011;2272;49.226;8.108;2024-01-27T04:03:47;12.43;;;3.07;;
4519;SDS011;2272;49.226;8.108;2024-01-27T04:06:15;7.60;;;2.37;;
4519;SDS011;2272;49.226;8.108;2024-01-27T04:08:42;7.93;;;3.10;;
4519;SDS011;2272;49.226;8.108;2024-01-27T04:11:18;6.87;;;2.47;;
4519;SDS011;2272;49.226;8.108;2024-01-27T04:13:45;8.50;;;2.77;;
4519;SDS011;2272;49.226;8.108;2024-01-27T04:16:12;5.93;;;2.57;;
4519;SDS011;2272;49.226;8.108;2024-01-27T04:18:39;7.90;;;2.50;;
4519;SDS011;2272;49.226;8.108;2024-01-27T04:21:06;9.23;;;2.90;;
4519;SDS011;2272;49.226;8.108;2024-01-27T04:23:34;4.77;;;2.20;;
4519;SDS011;2272;49.226;8.108;2024-01-27T04:26:00;9.97;;;2.50;;
4519;SDS011;2272;49.226;8.108;2024-01-27T04:28:28;12.53;;;2.90;;
4519;SDS011;2272;49.226;8.108;2024-01-27T04:30:56;12.37;;;1.90;;
4519;SDS011;2272;49.226;8.108;2024-01-27T04:33:23;5.63;;;1.60;;
4519;SDS011;2272;49.226;8.108;2024-01-27T04:35:50;4.60;;;2.30;;
4519;SDS011;2272;49.226;8.108;2024-01-27T04:38:16;5.93;;;2.27;;
4519;SDS011;2272;49.226;8.108;2024-01-27T04:40:45;14.07;;;2.00;;
4519;SDS011;2272;49.226;8.108;2024-01-27T04:43:14;6.57;;;2.50;;
4519;SDS011;2272;49.226;8.108;2024-01-27T04:45:41;4.33;;;1.93;;
4519;SDS011;2272;49.226;8.108;2024-01-27T04:48:07;10.77;;;1.90;;
4519;SDS011;2272;49.226;8.108;2024-01-27T04:50:34;1.73;;;1.27;;
4519;SDS011;2272;49.226;8.108;2024-01-27T04:53:01;3.20;;;2.13;;
4519;SDS011;2272;49.226;8.108;2024-01-27T04:55:28;2.80;;;1.87;;
4519;SDS011;2272;49.226;8.108;2024-01-27T04:57:56;11.50;;;2.40;;
4519;SDS011;2272;49.226;8.108;2024-01-27T05:00:23;11.77;;;2.87;;
4519;SDS011;2272;49.226;8.108;2024-01-27T05:02:52;6.97;;;2.30;;
4519;SDS011;2272;49.226;8.108;2024-01-27T05:05:18;11.73;;;2.37;;
4519;SDS011;2272;49.226;8.108;2024-01-27T05:07:45;6.80;;;2.37;;
4519;SDS011;2272;49.226;8.108;2024-01-27T05:10:14;13.87;;;1.90;;
4519;SDS011;2272;49.226;8.108;2024-01-27T05:12:41;3.80;;;1.80;;
4519;SDS011;2272;49.226;8.108;2024-01-27T05:15:09;8.17;;;1.50;;
4519;SDS011;2272;49.226;8.108;2024-01-27T05:17:36;11.40;;;2.57;;
4519;SDS011;2272;49.226;8.108;2024-01-27T05:20:03;6.13;;;2.30;;
4519;SDS011;2272;49.226;8.108;2024-01-27T05:22:31;3.23;;;1.97;;
4519;SDS011;2272;49.226;8.108;2024-01-27T05:24:57;6.70;;;2.43;;
4519;SDS011;2272;49.226;8.108;2024-01-27T05:27:24;7.33;;;2.93;;
4519;SDS011;2272;49.226;8.108;2024-01-27T05:29:50;8.00;;;2.77;;
4519;SDS011;2272;49.226;8.108;2024-01-27T05:32:19;12.73;;;2.20;;
4519;SDS011;2272;49.226;8.108;2024-01-27T05:34:45;7.50;;;2.00;;
4519;SDS011;2272;49.226;8.108;2024-01-27T05:37:12;4.30;;;2.30;;
4519;SDS011;2272;49.226;8.108;2024-01-27T05:39:39;5.83;;;1.87;;
4519;SDS011;2272;49.226;8.108;2024-01-27T05:42:05;5.87;;;2.27;;
4519;SDS011;2272;49.226;8.108;2024-01-27T05:44:32;7.13;;;2.80;;
4519;SDS011;2272;49.226;8.108;2024-01-27T05:46:59;3.47;;;1.80;;
4519;SDS011;2272;49.226;8.108;2024-01-27T05:49:27;4.50;;;2.20;;
4519;SDS011;2272;49.226;8.108;2024-01-27T05:51:53;6.53;;;2.00;;
4519;SDS011;2272;49.226;8.108;2024-01-27T05:54:20;7.40;;;2.30;;
4519;SDS011;2272;49.226;8.108;2024-01-27T05:56:47;7.57;;;2.43;;
4519;SDS011;2272;49.226;8.108;2024-01-27T05:59:14;7.73;;;1.93;;
4519;SDS011;2272;49.226;8.108;2024-01-27T06:01:40;7.10;;;2.07;;
4519;SDS011;2272;49.226;8.108;2024-01-27T06:04:09;7.10;;;2.83;;
4519;SDS011;2272;49.226;8.108;2024-01-27T06:06:38;3.73;;;1.90;;
4519;SDS011;2272;49.226;8.108;2024-01-27T06:09:05;4.63;;;1.80;;
4519;SDS011;2272;49.226;8.108;2024-01-27T06:11:36;4.10;;;2.07;;
4519;SDS011;2272;49.226;8.108;2024-01-27T06:14:03;3.03;;;1.83;;
4519;SDS011;2272;49.226;8.108;2024-01-27T06:16:30;9.37;;;3.00;;
4519;SDS011;2272;49.226;8.108;2024-01-27T06:18:56;8.03;;;2.50;;
4519;SDS011;2272;49.226;8.108;2024-01-27T06:21:23;4.67;;;2.20;;
4519;SDS011;2272;49.226;8.108;2024-01-27T06:23:51;8.73;;;2.40;;
4519;SDS011;2272;49.226;8.108;2024-01-27T06:26:18;15.70;;;2.20;;
4519;SDS011;2272;49.226;8.108;2024-01-27T06:28:46;6.17;;;2.07;;
4519;SDS011;2272;49.226;8.108;2024-01-27T06:31:13;2.17;;;1.93;;
4519;SDS011;2272;49.226;8.108;2024-01-27T06:33:41;5.10;;;2.60;;
4519;SDS011;2272;49.226;8.108;2024-01-27T06:36:08;9.37;;;3.83;;
4519;SDS011;2272;49.226;8.108;2024-01-27T06:38:35;7.03;;;3.10;;
4519;SDS011;2272;49.226;8.108;2024-01-27T06:41:04;3.30;;;2.60;;
4519;SDS011;2272;49.226;8.108;2024-01-27T06:43:31;15.83;;;2.80;;
4519;SDS011;2272;49.226;8.108;2024-01-27T06:45:58;6.73;;;2.70;;
4519;SDS011;2272;49.226;8.108;2024-01-27T06:48:24;3.30;;;2.17;;
4519;SDS011;2272;49.226;8.108;2024-01-27T06:50:52;8.60;;;1.97;;
4519;SDS011;2272;49.226;8.108;2024-01-27T06:53:19;2.80;;;2.13;;
4519;SDS011;2272;49.226;8.108;2024-01-27T06:55:46;3.43;;;2.33;;
4519;SDS011;2272;49.226;8.108;2024-01-27T06:58:14;4.60;;;2.90;;
4519;SDS011;2272;49.226;8.108;2024-01-27T07:00:40;6.17;;;1.90;;
4519;SDS011;2272;49.226;8.108;2024-01-27T07:03:07;3.50;;;2.40;;
4519;SDS011;2272;49.226;8.108;2024-01-27T07:05:34;8.23;;;2.70;;
4519;SDS011;2272;49.226;8.108;2024-01-27T07:08:04;6.50;;;2.10;;
4519;SDS011;2272;49.226;8.108;2024-01-27T07:10:31;7.47;;;2.17;;
4519;SDS011;2272;49.226;8.108;2024-01-27T07:12:58;6.00;;;2.20;;
4519;SDS011;2272;49.226;8.108;2024-01-27T07:15:29;7.20;;;2.57;;
4519;SDS011;2272;49.226;8.108;2024-01-27T07:17:56;9.90;;;2.33;;
4519;SDS011;2272;49.226;8.108;2024-01-27T07:20:23;9.00;;;2.63;;
4519;SDS011;2272;49.226;8.108;2024-01-27T07:22:50;9.27;;;2.97;;
4519;SDS011;2272;49.226;8.108;2024-01-27T07:25:16;1.90;;;1.80;;
4519;SDS011;2272;49.226;8.108;2024-01-27T07:27:43;16.03;;;4.50;;
4519;SDS011;2272;49.226;8.108;2024-01-27T07:30:11;6.97;;;3.30;;
4519;SDS011;2272;49.226;8.108;2024-01-27T07:32:39;3.77;;;3.00;;
4519;SDS011;2272;49.226;8.108;2024-01-27T07:35:06;6.33;;;3.40;;
4519;SDS011;2272;49.226;8.108;2024-01-27T07:37:34;12.17;;;4.13;;
4519;SDS011;2272;49.226;8.108;2024-01-27T07:40:00;22.17;;;6.27;;
4519;SDS011;2272;49.226;8.108;2024-01-27T07:42:27;15.67;;;8.43;;
4519;SDS011;2272;49.226;8.108;2024-01-27T07:44:54;25.30;;;14.90;;
4519;SDS011;2272;49.226;8.108;2024-01-27T07:47:20;28.27;;;15.60;;
4519;SDS011;2272;49.226;8.108;2024-01-27T07:49:48;36.77;;;20.17;;
4519;SDS011;2272;49.226;8.108;2024-01-27T07:52:15;28.70;;;11.00;;
4519;SDS011;2272;49.226;8.108;2024-01-27T07:54:42;38.87;;;14.90;;
4519;SDS011;2272;49.226;8.108;2024-01-27T07:57:10;18.13;;;8.63;;
4519;SDS011;2272;49.226;8.108;2024-01-27T07:59:37;10.73;;;6.10;;
4519;SDS011;2272;49.226;8.108;2024-01-27T08:02:04;12.20;;;6.57;;
4519;SDS011;2272;49.226;8.108;2024-01-27T08:04:31;10.57;;;5.00;;
4519;SDS011;2272;49.226;8.108;2024-01-27T08:06:59;8.00;;;4.50;;
4519;SDS011;2272;49.226;8.108;2024-01-27T08:09:31;5.10;;;3.43;;
4519;SDS011;2272;49.226;8.108;2024-01-27T08:11:57;12.67;;;4.97;;
4519;SDS011;2272;49.226;8.108;2024-01-27T08:14:24;16.47;;;6.30;;
4519;SDS011;2272;49.226;8.108;2024-01-27T08:16:52;14.53;;;6.00;;
4519;SDS011;2272;49.226;8.108;2024-01-27T08:19:18;9.60;;;6.30;;
4519;SDS011;2272;49.226;8.108;2024-01-27T08:21:46;13.83;;;7.73;;
4519;SDS011;2272;49.226;8.108;2024-01-27T08:24:14;21.63;;;14.23;;
4519;SDS011;2272;49.226;8.108;2024-01-27T08:26:41;15.13;;;11.30;;
4519;SDS011;2272;49.226;8.108;2024-01-27T08:29:08;16.47;;;14.30;;
4519;SDS011;2272;49.226;8.108;2024-01-27T08:31:34;26.70;;;15.57;;
4519;SDS011;2272;49.226;8.108;2024-01-27T08:34:03;119.47;;;69.90;;
4519;SDS011;2272;49.226;8.108;2024-01-27T08:36:29;121.53;;;63.67;;
4519;SDS011;2272;49.226;8.108;2024-01-27T08:38:57;128.50;;;66.20;;
4519;SDS011;2272;49.226;8.108;2024-01-27T08:41:25;107.57;;;55.20;;
4519;SDS011;2272;49.226;8.108;2024-01-27T08:43:52;84.63;;;37.70;;
4519;SDS011;2272;49.226;8.108;2024-01-27T08:46:18;69.03;;;33.87;;
4519;SDS011;2272;49.226;8.108;2024-01-27T08:48:47;45.67;;;23.73;;
4519;SDS011;2272;49.226;8.108;2024-01-27T08:51:13;53.50;;;27.47;;
4519;SDS011;2272;49.226;8.108;2024-01-27T08:53:41;46.10;;;22.07;;
4519;SDS011;2272;49.226;8.108;2024-01-27T08:56:13;32.23;;;17.43;;
4519;SDS011;2272;49.226;8.108;2024-01-27T08:58:42;27.60;;;12.87;;
4519;SDS011;2272;49.226;8.108;2024-01-27T09:01:09;28.60;;;17.27;;
4519;SDS011;2272;49.226;8.108;2024-01-27T09:03:37;21.53;;;12.93;;
4519;SDS011;2272;49.226;8.108;2024-01-27T09:06:05;28.87;;;14.73;;
4519;SDS011;2272;49.226;8.108;2024-01-27T09:08:32;45.30;;;20.47;;
4519;SDS011;2272;49.226;8.108;2024-01-27T09:10:59;40.83;;;19.37;;
4519;SDS011;2272;49.226;8.108;2024-01-27T09:13:26;32.23;;;17.33;;
4519;SDS011;2272;49.226;8.108;2024-01-27T09:15:57;29.87;;;17.03;;
4519;SDS011;2272;49.226;8.108;2024-01-27T09:18:24;21.80;;;13.90;;
4519;SDS011;2272;49.226;8.108;2024-01-27T09:20:51;17.00;;;10.40;;
4519;SDS011;2272;49.226;8.108;2024-01-27T09:23:18;16.70;;;10.50;;
4519;SDS011;2272;49.226;8.108;2024-01-27T09:25:44;13.90;;;9.60;;
4519;SDS011;2272;49.226;8.108;2024-01-27T09:28:11;17.57;;;5.00;;
4519;SDS011;2272;49.226;8.108;2024-01-27T09:30:39;11.13;;;3.03;;
4519;SDS011;2272;49.226;8.108;2024-01-27T09:33:07;4.13;;;2.53;;
4519;SDS011;2272;49.226;8.108;2024-01-27T09:35:34;5.77;;;2.90;;
4519;SDS011;2272;49.226;8.108;2024-01-27T09:38:00;5.63;;;3.07;;
4519;SDS011;2272;49.226;8.108;2024-01-27T09:40:27;7.43;;;3.57;;
4519;SDS011;2272;49.226;8.108;2024-01-27T09:42:54;6.37;;;2.73;;
4519;SDS011;2272;49.226;8.108;2024-01-27T09:45:24;5.40;;;2.60;;
4519;SDS011;2272;49.226;8.108;2024-01-27T09:47:51;2.27;;;2.17;;
4519;SDS011;2272;49.226;8.108;2024-01-27T09:50:21;4.30;;;2.60;;
4519;SDS011;2272;49.226;8.108;2024-01-27T09:52:48;13.43;;;2.63;;
4519;SDS011;2272;49.226;8.108;2024-01-27T09:55:15;7.10;;;2.80;;
4519;SDS011;2272;49.226;8.108;2024-01-27T09:57:42;3.30;;;2.40;;
4519;SDS011;2272;49.226;8.108;2024-01-27T10:00:11;6.00;;;2.90;;
4519;SDS011;2272;49.226;8.108;2024-01-27T10:02:39;6.30;;;3.80;;
4519;SDS011;2272;49.226;8.108;2024-01-27T10:05:07;6.30;;;3.37;;
4519;SDS011;2272;49.226;8.108;2024-01-27T10:07:36;5.73;;;3.20;;
4519;SDS011;2272;49.226;8.108;2024-01-27T10:10:03;12.47;;;3.00;;
4519;SDS011;2272;49.226;8.108;2024-01-27T10:12:31;6.73;;;3.50;;
4519;SDS011;2272;49.226;8.108;2024-01-27T10:14:58;6.57;;;3.20;;
4519;SDS011;2272;49.226;8.108;2024-01-27T10:17:25;5.20;;;2.40;;
4519;SDS011;2272;49.226;8.108;2024-01-27T10:20:00;11.30;;;4.00;;
4519;SDS011;2272;49.226;8.108;2024-01-27T10:22:28;11.60;;;3.90;;
4519;SDS011;2272;49.226;8.108;2024-01-27T10:24:56;8.07;;;4.10;;
4519;SDS011;2272;49.226;8.108;2024-01-27T10:27:23;8.43;;;2.87;;
4519;SDS011;2272;49.226;8.108;2024-01-27T10:29:53;6.13;;;2.87;;
4519;SDS011;2272;49.226;8.108;2024-01-27T10:32:20;13.03;;;3.17;;
4519;SDS011;2272;49.226;8.108;2024-01-27T10:34:49;16.53;;;4.33;;
4519;SDS011;2272;49.226;8.108;2024-01-27T10:37:23;11.27;;;5.27;;
4519;SDS011;2272;49.226;8.108;2024-01-27T10:40:00;10.30;;;5.07;;
4519;SDS011;2272;49.226;8.108;2024-01-27T10:42:28;6.30;;;4.30;;
4519;SDS011;2272;49.226;8.108;2024-01-27T10:45:05;13.43;;;4.37;;
4519;SDS011;2272;49.226;8.108;2024-01-27T10:47:34;6.60;;;3.40;;
4519;SDS011;2272;49.226;8.108;2024-01-27T10:50:10;12.07;;;3.97;;
4519;SDS011;2272;49.226;8.108;2024-01-27T10:52:38;5.70;;;3.07;;
4519;SDS011;2272;49.226;8.108;2024-01-27T10:55:23;2.90;;;2.70;;
4519;SDS011;2272;49.226;8.108;2024-01-27T10:58:06;9.13;;;2.93;;
4519;SDS011;2272;49.226;8.108;2024-01-27T11:00:34;5.43;;;3.10;;
4519;SDS011;2272;49.226;8.108;2024-01-27T11:03:02;3.80;;;2.77;;
4519;SDS011;2272;49.226;8.108;2024-01-27T11:05:30;7.77;;;2.70;;
4519;SDS011;2272;49.226;8.108;2024-01-27T11:08:01;15.37;;;4.03;;
4519;SDS011;2272;49.226;8.108;2024-01-27T11:10:32;6.23;;;3.10;;
4519;SDS011;2272;49.226;8.108;2024-01-27T11:13:01;8.20;;;3.50;;
4519;SDS011;2272;49.226;8.108;2024-01-27T11:15:30;6.30;;;2.30;;
4519;SDS011;2272;49.226;8.108;2024-01-27T11:17:57;6.67;;;3.27;;
4519;SDS011;2272;49.226;8.108;2024-01-27T11:20:25;4.77;;;3.00;;
4519;SDS011;2272;49.226;8.108;2024-01-27T11:22:52;10.30;;;2.70;;
4519;SDS011;2272;49.226;8.108;2024-01-27T11:25:19;4.60;;;3.53;;
4519;SDS011;2272;49.226;8.108;2024-01-27T11:27:48;6.03;;;2.93;;
4519;SDS011;2272;49.226;8.108;2024-01-27T11:30:27;8.03;;;3.03;;
4519;SDS011;2272;49.226;8.108;2024-01-27T11:32:55;5.07;;;2.73;;
4519;SDS011;2272;49.226;8.108;2024-01-27T11:35:22;7.30;;;2.93;;
4519;SDS011;2272;49.226;8.108;2024-01-27T11:37:50;7.60;;;2.77;;
4519;SDS011;2272;49.226;8.108;2024-01-27T11:40:17;21.70;;;4.50;;
4519;SDS011;2272;49.226;8.108;2024-01-27T11:42:54;8.33;;;3.10;;
4519;SDS011;2272;49.226;8.108;2024-01-27T11:45:22;6.10;;;2.93;;
4519;SDS011;2272;49.226;8.108;2024-01-27T11:47:49;12.60;;;3.10;;
4519;SDS011;2272;49.226;8.108;2024-01-27T11:50:17;8.43;;;3.40;;
4519;SDS011;2272;49.226;8.108;2024-01-27T11:52:45;14.30;;;3.37;;
4519;SDS011;2272;49.226;8.108;2024-01-27T11:55:12;22.13;;;3.50;;
4519;SDS011;2272;49.226;8.108;2024-01-27T11:57:41;6.73;;;3.50;;
4519;SDS011;2272;49.226;8.108;2024-01-27T12:00:13;4.40;;;2.60;;
4519;SDS011;2272;49.226;8.108;2024-01-27T12:02:41;14.00;;;2.30;;
4519;SDS011;2272;49.226;8.108;2024-01-27T12:05:10;7.07;;;2.73;;
4519;SDS011;2272;49.226;8.108;2024-01-27T12:07:40;5.23;;;3.00;;
4519;SDS011;2272;49.226;8.108;2024-01-27T12:10:08;10.87;;;3.70;;
4519;SDS011;2272;49.226;8.108;2024-01-27T12:12:37;8.47;;;2.60;;
4519;SDS011;2272;49.226;8.108;2024-01-27T12:15:04;4.53;;;2.60;;
4519;SDS011;2272;49.226;8.108;2024-01-27T12:17:33;7.33;;;1.80;;
4519;SDS011;2272;49.226;8.108;2024-01-27T12:20:04;6.43;;;2.57;;
4519;SDS011;2272;49.226;8.108;2024-01-27T12:22:42;9.73;;;3.10;;
4519;SDS011;2272;49.226;8.108;2024-01-27T12:25:09;3.53;;;2.57;;
4519;SDS011;2272;49.226;8.108;2024-01-27T12:27:38;8.97;;;2.30;;
4519;SDS011;2272;49.226;8.108;2024-01-27T12:30:06;5.07;;;2.60;;
4519;SDS011;2272;49.226;8.108;2024-01-27T12:32:35;5.97;;;2.57;;
4519;SDS011;2272;49.226;8.108;2024-01-27T12:35:04;6.17;;;2.60;;
4519;SDS011;2272;49.226;8.108;2024-01-27T12:37:31;5.03;;;2.60;;
4519;SDS011;2272;49.226;8.108;2024-01-27T12:39:57;9.50;;;2.90;;
4519;SDS011;2272;49.226;8.108;2024-01-27T12:42:24;21.80;;;3.40;;
4519;SDS011;2272;49.226;8.108;2024-01-27T12:44:51;9.30;;;2.93;;
4519;SDS011;2272;49.226;8.108;2024-01-27T12:47:18;6.67;;;3.73;;
4519;SDS011;2272;49.226;8.108;2024-01-27T12:49:46;8.30;;;3.17;;
4519;SDS011;2272;49.226;8.108;2024-01-27T12:52:13;10.90;;;4.00;;
4519;SDS011;2272;49.226;8.108;2024-01-27T12:54:40;9.10;;;2.30;;
4519;SDS011;2272;49.226;8.108;2024-01-27T12:57:07;8.13;;;2.70;;
4519;SDS011;2272;49.226;8.108;2024-01-27T12:59:34;7.93;;;4.17;;
4519;SDS011;2272;49.226;8.108;2024-01-27T13:02:01;30.30;;;8.00;;
4519;SDS011;2272;49.226;8.108;2024-01-27T13:04:27;17.80;;;5.03;;
4519;SDS011;2272;49.226;8.108;2024-01-27T13:06:55;12.77;;;3.83;;
4519;SDS011;2272;49.226;8.108;2024-01-27T13:09:22;7.20;;;3.37;;
4519;SDS011;2272;49.226;8.108;2024-01-27T13:11:49;12.33;;;3.30;;
4519;SDS011;2272;49.226;8.108;2024-01-27T13:14:16;10.50;;;4.70;;
4519;SDS011;2272;49.226;8.108;2024-01-27T13:16:43;4.07;;;2.93;;
4519;SDS011;2272;49.226;8.108;2024-01-27T13:19:16;6.77;;;3.20;;
4519;SDS011;2272;49.226;8.108;2024-01-27T13:40:40;7.23;;;3.30;;
4519;SDS011;2272;49.226;8.108;2024-01-27T13:43:07;6.57;;;3.50;;
4519;SDS011;2272;49.226;8.108;2024-01-27T13:45:34;14.23;;;3.67;;
4519;SDS011;2272;49.226;8.108;2024-01-27T13:48:01;17.93;;;4.40;;
4519;SDS011;2272;49.226;8.108;2024-01-27T13:50:27;5.23;;;3.23;;
4519;SDS011;2272;49.226;8.108;2024-01-27T13:52:56;9.80;;;4.07;;
4519;SDS011;2272;49.226;8.108;2024-01-27T13:55:23;13.63;;;4.17;;
4519;SDS011;2272;49.226;8.108;2024-01-27T13:57:51;6.73;;;3.70;;
4519;SDS011;2272;49.226;8.108;2024-01-27T14:00:19;9.77;;;3.83;;
4519;SDS011;2272;49.226;8.108;2024-01-27T14:02:46;8.60;;;3.83;;
4519;SDS011;2272;49.226;8.108;2024-01-27T14:05:13;7.23;;;3.43;;
4519;SDS011;2272;49.226;8.108;2024-01-27T14:07:40;9.10;;;4.13;;
4519;SDS011;2272;49.226;8.108;2024-01-27T14:10:12;11.33;;;4.53;;
4519;SDS011;2272;49.226;8.108;2024-01-27T14:12:39;4.47;;;3.40;;
4519;SDS011;2272;49.226;8.108;2024-01-27T14:15:11;10.00;;;4.60;;
4519;SDS011;2272;49.226;8.108;2024-01-27T14:17:38;13.13;;;4.37;;
4519;SDS011;2272;49.226;8.108;2024-01-27T14:20:05;11.20;;;3.07;;
4519;SDS011;2272;49.226;8.108;2024-01-27T14:22:34;11.43;;;3.67;;
4519;SDS011;2272;49.226;8.108;2024-01-27T14:25:01;13.93;;;2.67;;
4519;SDS011;2272;49.226;8.108;2024-01-27T14:27:28;18.40;;;3.30;;
4519;SDS011;2272;49.226;8.108;2024-01-27T14:29:55;9.97;;;3.17;;
4519;SDS011;2272;49.226;8.108;2024-01-27T14:32:24;6.10;;;3.50;;
4519;SDS011;2272;49.226;8.108;2024-01-27T14:34:51;13.50;;;2.97;;
4519;SDS011;2272;49.226;8.108;2024-01-27T14:37:17;3.30;;;2.70;;
4519;SDS011;2272;49.226;8.108;2024-01-27T14:39:44;10.10;;;3.20;;
4519;SDS011;2272;49.226;8.108;2024-01-27T14:42:13;9.60;;;3.47;;
4519;SDS011;2272;49.226;8.108;2024-01-27T14:44:39;7.50;;;2.77;;
4519;SDS011;2272;49.226;8.108;2024-01-27T14:47:07;8.20;;;4.10;;
4519;SDS011;2272;49.226;8.108;2024-01-27T14:49:37;16.20;;;4.57;;
4519;SDS011;2272;49.226;8.108;2024-01-27T14:52:04;9.37;;;4.03;;
4519;SDS011;2272;49.226;8.108;2024-01-27T14:54:32;8.47;;;3.83;;
4519;SDS011;2272;49.226;8.108;2024-01-27T14:56:59;8.10;;;3.83;;
4519;SDS011;2272;49.226;8.108;2024-01-27T14:59:26;14.27;;;5.27;;
4519;SDS011;2272;49.226;8.108;2024-01-27T15:01:53;10.67;;;4.07;;
4519;SDS011;2272;49.226;8.108;2024-01-27T15:04:22;13.33;;;5.63;;
4519;SDS011;2272;49.226;8.108;2024-01-27T15:06:52;21.87;;;4.80;;
4519;SDS011;2272;49.226;8.108;2024-01-27T15:09:19;15.73;;;6.53;;
4519;SDS011;2272;49.226;8.108;2024-01-27T15:11:46;19.90;;;4.60;;
4519;SDS011;2272;49.226;8.108;2024-01-27T15:14:13;9.00;;;4.57;;
4519;SDS011;2272;49.226;8.108;2024-01-27T15:16:41;10.33;;;4.40;;
4519;SDS011;2272;49.226;8.108;2024-01-27T15:19:09;14.87;;;5.07;;
4519;SDS011;2272;49.226;8.108;2024-01-27T15:21:36;22.00;;;5.10;;
4519;SDS011;2272;49.226;8.108;2024-01-27T15:24:05;14.00;;;4.33;;
4519;SDS011;2272;49.226;8.108;2024-01-27T15:26:32;8.23;;;4.43;;
4519;SDS011;2272;49.226;8.108;2024-01-27T15:28:59;3.27;;;2.80;;
4519;SDS011;2272;49.226;8.108;2024-01-27T15:31:26;6.10;;;2.73;;
4519;SDS011;2272;49.226;8.108;2024-01-27T15:33:54;14.57;;;6.53;;
4519;SDS011;2272;49.226;8.108;2024-01-27T15:36:21;18.37;;;9.57;;
4519;SDS011;2272;49.226;8.108;2024-01-27T15:38:48;15.87;;;8.33;;
4519;SDS011;2272;49.226;8.108;2024-01-27T15:41:16;24.27;;;8.67;;
4519;SDS011;2272;49.226;8.108;2024-01-27T15:43:44;14.17;;;7.13;;
4519;SDS011;2272;49.226;8.108;2024-01-27T15:46:14;13.53;;;6.40;;
4519;SDS011;2272;49.226;8.108;2024-01-27T15:48:41;11.30;;;6.30;;
4519;SDS011;2272;49.226;8.108;2024-01-27T15:51:09;10.90;;;5.40;;
4519;SDS011;2272;49.226;8.108;2024-01-27T15:53:36;12.73;;;6.30;;
4519;SDS011;2272;49.226;8.108;2024-01-27T15:56:03;4.87;;;2.90;;
4519;SDS011;2272;49.226;8.108;2024-01-27T15:58:33;8.10;;;3.50;;
4519;SDS011;2272;49.226;8.108;2024-01-27T16:01:00;11.80;;;3.83;;
4519;SDS011;2272;49.226;8.108;2024-01-27T16:03:27;6.93;;;3.70;;
4519;SDS011;2272;49.226;8.108;2024-01-27T16:05:54;13.10;;;4.83;;
4519;SDS011;2272;49.226;8.108;2024-01-27T16:08:21;9.87;;;4.70;;
4519;SDS011;2272;49.226;8.108;2024-01-27T16:10:48;11.13;;;5.73;;
4519;SDS011;2272;49.226;8.108;2024-01-27T16:13:17;12.33;;;5.33;;
4519;SDS011;2272;49.226;8.108;2024-01-27T16:15:45;24.80;;;4.10;;
4519;SDS011;2272;49.226;8.108;2024-01-27T16:18:13;12.63;;;4.67;;
4519;SDS011;2272;49.226;8.108;2024-01-27T16:20:40;7.83;;;3.80;;
4519;SDS011;2272;49.226;8.108;2024-01-27T16:23:07;9.53;;;4.27;;
4519;SDS011;2272;49.226;8.108;2024-01-27T16:25:33;12.80;;;4.93;;
4519;SDS011;2272;49.226;8.108;2024-01-27T16:28:00;5.27;;;3.87;;
4519;SDS011;2272;49.226;8.108;2024-01-27T16:30:27;7.37;;;3.80;;
4519;SDS011;2272;49.226;8.108;2024-01-27T16:32:56;12.30;;;3.97;;
4519;SDS011;2272;49.226;8.108;2024-01-27T16:35:22;7.83;;;3.10;;
4519;SDS011;2272;49.226;8.108;2024-01-27T16:37:49;5.67;;;4.33;;
4519;SDS011;2272;49.226;8.108;2024-01-27T16:40:16;4.00;;;3.60;;
4519;SDS011;2272;49.226;8.108;2024-01-27T16:42:44;13.47;;;3.80;;
4519;SDS011;2272;49.226;8.108;2024-01-27T16:45:11;9.73;;;3.67;;
4519;SDS011;2272;49.226;8.108;2024-01-27T16:47:38;8.00;;;3.97;;
4519;SDS011;2272;49.226;8.108;2024-01-27T16:50:07;6.03;;;3.60;;
4519;SDS011;2272;49.226;8.108;2024-01-27T16:52:35;12.43;;;3.50;;
4519;SDS011;2272;49.226;8.108;2024-01-27T16:55:03;5.97;;;4.00;;
4519;SDS011;2272;49.226;8.108;2024-01-27T16:57:31;9.87;;;3.90;;
4519;SDS011;2272;49.226;8.108;2024-01-27T16:59:59;9.83;;;3.87;;
4519;SDS011;2272;49.226;8.108;2024-01-27T17:02:26;9.77;;;3.23;;
4519;SDS011;2272;49.226;8.108;2024-01-27T17:04:53;8.27;;;5.07;;
4519;SDS011;2272;49.226;8.108;2024-01-27T17:07:28;13.27;;;5.67;;
4519;SDS011;2272;49.226;8.108;2024-01-27T17:09:57;15.60;;;6.00;;
4519;SDS011;2272;49.226;8.108;2024-01-27T17:12:25;26.80;;;9.10;;
4519;SDS011;2272;49.226;8.108;2024-01-27T17:14:52;23.60;;;10.20;;
4519;SDS011;2272;49.226;8.108;2024-01-27T17:17:19;17.57;;;9.00;;
4519;SDS011;2272;49.226;8.108;2024-01-27T17:19:46;18.10;;;11.00;;
4519;SDS011;2272;49.226;8.108;2024-01-27T17:22:14;15.63;;;8.10;;
4519;SDS011;2272;49.226;8.108;2024-01-27T17:24:52;20.20;;;7.10;;
4519;SDS011;2272;49.226;8.108;2024-01-27T17:27:23;11.33;;;6.17;;
4519;SDS011;2272;49.226;8.108;2024-01-27T17:29:52;19.50;;;6.10;;
4519;SDS011;2272;49.226;8.108;2024-01-27T17:32:21;16.43;;;6.70;;
4519;SDS011;2272;49.226;8.108;2024-01-27T17:34:48;10.43;;;6.87;;
4519;SDS011;2272;49.226;8.108;2024-01-27T17:37:15;21.73;;;5.60;;
4519;SDS011;2272;49.226;8.108;2024-01-27T17:39:42;10.63;;;6.20;;
4519;SDS011;2272;49.226;8.108;2024-01-27T17:42:12;19.37;;;8.43;;
4519;SDS011;2272;49.226;8.108;2024-01-27T17:44:39;16.50;;;7.80;;
4519;SDS011;2272;49.226;8.108;2024-01-27T17:47:07;19.60;;;8.60;;
4519;SDS011;2272;49.226;8.108;2024-01-27T17:49:35;15.20;;;8.90;;
4519;SDS011;2272;49.226;8.108;2024-01-27T17:52:03;14.30;;;7.87;;
4519;SDS011;2272;49.226;8.108;2024-01-27T17:54:31;19.97;;;8.53;;
4519;SDS011;2272;49.226;8.108;2024-01-27T17:56:59;16.20;;;6.83;;
4519;SDS011;2272;49.226;8.108;2024-01-27T17:59:30;6.60;;;4.53;;
4519;SDS011;2272;49.226;8.108;2024-01-27T18:01:57;17.23;;;5.40;;
4519;SDS011;2272;49.226;8.108;2024-01-27T18:04:24;20.80;;;7.90;;
4519;SDS011;2272;49.226;8.108;2024-01-27T18:06:52;14.23;;;6.17;;
4519;SDS011;2272;49.226;8.108;2024-01-27T18:09:20;11.77;;;5.07;;
4519;SDS011;2272;49.226;8.108;2024-01-27T18:11:48;25.17;;;7.43;;
4519;SDS011;2272;49.226;8.108;2024-01-27T18:14:17;16.57;;;6.27;;
4519;SDS011;2272;49.226;8.108;2024-01-27T18:16:45;12.70;;;6.77;;
4519;SDS011;2272;49.226;8.108;2024-01-27T18:19:12;15.53;;;6.77;;
4519;SDS011;2272;49.226;8.108;2024-01-27T18:21:41;14.30;;;7.33;;